sensor_id;sensor_type;location;lat;lon;timestamp;temperature;humidity
13458;DHT22;6801;53.018;11.560;2023-01-28T00:00:55;1.50;83.10
13458;DHT22;6801;53.018;11.560;2023-01-28T00:03:23;1.50;83.10
13458;DHT22;6801;53.018;11.560;2023-01-28T00:05:51;1.50;83.10
13458;DHT22;6801;53.018;11.560;2023-01-28T00:08:19;1.50;83.10
13458;DHT22;6801;53.018;11.560;2023-01-28T00:10:46;1.40;83.10
13458;DHT22;6801;53.018;11.560;2023-01-28T00:13:13;1.50;83.10
13458;DHT22;6801;53.018;11.560;2023-01-28T00:15:41;1.50;83.10
13458;DHT22;6801;53.018;11.560;2023-01-28T00:18:08;1.50;83.10
13458;DHT22;6801;53.018;11.560;2023-01-28T00:20:36;1.50;83.10
13458;DHT22;6801;53.018;11.560;2023-01-28T00:23:03;1.50;83.10
13458;DHT22;6801;53.018;11.560;2023-01-28T00:25:30;1.50;83.10
13458;DHT22;6801;53.018;11.560;2023-01-28T00:27:57;1.50;83.10
13458;DHT22;6801;53.018;11.560;2023-01-28T00:30:24;1.50;83.10
13458;DHT22;6801;53.018;11.560;2023-01-28T00:32:52;1.50;83.10
13458;DHT22;6801;53.018;11.560;2023-01-28T00:35:20;1.50;83.10
13458;DHT22;6801;53.018;11.560;2023-01-28T00:37:48;1.50;83.10
13458;DHT22;6801;53.018;11.560;2023-01-28T00:40:15;1.50;83.10
13458;DHT22;6801;53.018;11.560;2023-01-28T00:42:42;1.50;83.10
13458;DHT22;6801;53.018;11.560;2023-01-28T00:45:09;1.50;83.10
13458;DHT22;6801;53.018;11.560;2023-01-28T00:47:36;1.50;83.10
13458;DHT22;6801;53.018;11.560;2023-01-28T00:50:04;1.50;83.10
13458;DHT22;6801;53.018;11.560;2023-01-28T00:52:31;1.50;83.10
13458;DHT22;6801;53.018;11.560;2023-01-28T00:54:59;1.50;83.10
13458;DHT22;6801;53.018;11.560;2023-01-28T00:57:26;1.50;83.20
13458;DHT22;6801;53.018;11.560;2023-01-28T00:59:53;1.50;83.10
13458;DHT22;6801;53.018;11.560;2023-01-28T01:02:21;1.50;83.20
13458;DHT22;6801;53.018;11.560;2023-01-28T01:04:48;1.50;83.20
13458;DHT22;6801;53.018;11.560;2023-01-28T01:07:26;1.50;83.20
13458;DHT22;6801;53.018;11.560;2023-01-28T01:10:01;1.50;83.20
13458;DHT22;6801;53.018;11.560;2023-01-28T01:12:28;1.50;83.10
13458;DHT22;6801;53.018;11.560;2023-01-28T01:14:55;1.60;83.10
13458;DHT22;6801;53.018;11.560;2023-01-28T01:17:22;1.60;83.10
13458;DHT22;6801;53.018;11.560;2023-01-28T01:19:49;1.50;83.20
13458;DHT22;6801;53.018;11.560;2023-01-28T01:22:16;1.50;83.20
13458;DHT22;6801;53.018;11.560;2023-01-28T01:24:43;1.50;83.20
13458;DHT22;6801;53.018;11.560;2023-01-28T01:27:11;1.60;83.10
13458;DHT22;6801;53.018;11.560;2023-01-28T01:29:38;1.60;83.10
13458;DHT22;6801;53.018;11.560;2023-01-28T01:32:06;1.60;83.10
13458;DHT22;6801;53.018;11.560;2023-01-28T01:34:33;1.60;83.10
13458;DHT22;6801;53.018;11.560;2023-01-28T01:37:00;1.60;83.10
13458;DHT22;6801;53.018;11.560;2023-01-28T01:39:28;1.60;83.10
13458;DHT22;6801;53.018;11.560;2023-01-28T01:41:55;1.60;83.10
13458;DHT22;6801;53.018;11.560;2023-01-28T01:45:01;1.60;83.10
13458;DHT22;6801;53.018;11.560;2023-01-28T01:47:39;1.60;83.10
13458;DHT22;6801;53.018;11.560;2023-01-28T01:50:15;1.60;83.10
13458;DHT22;6801;53.018;11.560;2023-01-28T01:52:42;1.60;83.10
13458;DHT22;6801;53.018;11.560;2023-01-28T01:55:15;1.60;83.10
13458;DHT22;6801;53.018;11.560;2023-01-28T01:57:44;1.60;83.10
13458;DHT22;6801;53.018;11.560;2023-01-28T02:00:13;1.60;83.20
13458;DHT22;6801;53.018;11.560;2023-01-28T02:02:43;1.60;83.20
13458;DHT22;6801;53.018;11.560;2023-01-28T02:05:13;1.60;83.20
13458;DHT22;6801;53.018;11.560;2023-01-28T02:07:41;1.60;83.20
13458;DHT22;6801;53.018;11.560;2023-01-28T02:10:10;1.60;83.20
13458;DHT22;6801;53.018;11.560;2023-01-28T02:12:39;1.60;83.10
13458;DHT22;6801;53.018;11.560;2023-01-28T02:15:15;1.60;83.10
13458;DHT22;6801;53.018;11.560;2023-01-28T02:17:42;1.60;83.10
13458;DHT22;6801;53.018;11.560;2023-01-28T02:20:11;1.60;83.10
13458;DHT22;6801;53.018;11.560;2023-01-28T02:23:06;1.60;83.20
13458;DHT22;6801;53.018;11.560;2023-01-28T02:25:51;1.60;83.20
13458;DHT22;6801;53.018;11.560;2023-01-28T02:28:31;1.60;83.30
13458;DHT22;6801;53.018;11.560;2023-01-28T02:31:05;1.60;83.30
13458;DHT22;6801;53.018;11.560;2023-01-28T02:33:42;1.60;83.30
13458;DHT22;6801;53.018;11.560;2023-01-28T02:36:17;1.60;83.30
13458;DHT22;6801;53.018;11.560;2023-01-28T02:38:49;1.60;83.30
13458;DHT22;6801;53.018;11.560;2023-01-28T02:41:24;1.60;83.40
13458;DHT22;6801;53.018;11.560;2023-01-28T02:43:55;1.60;83.40
13458;DHT22;6801;53.018;11.560;2023-01-28T02:46:34;1.60;83.40
13458;DHT22;6801;53.018;11.560;2023-01-28T02:49:24;1.70;83.40
13458;DHT22;6801;53.018;11.560;2023-01-28T02:52:12;1.60;83.30
13458;DHT22;6801;53.018;11.560;2023-01-28T02:54:47;1.60;83.20
13458;DHT22;6801;53.018;11.560;2023-01-28T02:57:28;1.60;83.00
13458;DHT22;6801;53.018;11.560;2023-01-28T03:00:03;1.60;82.90
13458;DHT22;6801;53.018;11.560;2023-01-28T03:02:35;1.60;82.90
13458;DHT22;6801;53.018;11.560;2023-01-28T03:05:06;1.60;83.00
13458;DHT22;6801;53.018;11.560;2023-01-28T03:07:37;1.60;83.00
13458;DHT22;6801;53.018;11.560;2023-01-28T03:10:08;1.60;83.00
13458;DHT22;6801;53.018;11.560;2023-01-28T03:12:39;1.60;82.90
13458;DHT22;6801;53.018;11.560;2023-01-28T03:15:28;1.60;82.90
13458;DHT22;6801;53.018;11.560;2023-01-28T03:18:16;1.60;83.00
13458;DHT22;6801;53.018;11.560;2023-01-28T03:21:07;1.60;83.00
13458;DHT22;6801;53.018;11.560;2023-01-28T03:23:57;1.60;83.00
13458;DHT22;6801;53.018;11.560;2023-01-28T03:26:49;1.60;83.10
13458;DHT22;6801;53.018;11.560;2023-01-28T03:29:35;1.70;83.10
13458;DHT22;6801;53.018;11.560;2023-01-28T03:32:22;1.60;83.00
13458;DHT22;6801;53.018;11.560;2023-01-28T03:35:08;1.60;82.80
13458;DHT22;6801;53.018;11.560;2023-01-28T03:37:54;1.60;82.80
13458;DHT22;6801;53.018;11.560;2023-01-28T03:40:25;1.60;82.90
13458;DHT22;6801;53.018;11.560;2023-01-28T03:42:52;1.60;82.90
13458;DHT22;6801;53.018;11.560;2023-01-28T03:45:32;1.60;82.90
13458;DHT22;6801;53.018;11.560;2023-01-28T03:48:02;1.70;82.90
13458;DHT22;6801;53.018;11.560;2023-01-28T03:50:29;1.60;82.90
13458;DHT22;6801;53.018;11.560;2023-01-28T03:53:00;1.60;82.90
13458;DHT22;6801;53.018;11.560;2023-01-28T03:55:45;1.60;82.90
13458;DHT22;6801;53.018;11.560;2023-01-28T03:58:12;1.60;83.00
13458;DHT22;6801;53.018;11.560;2023-01-28T04:00:40;1.60;83.00
13458;DHT22;6801;53.018;11.560;2023-01-28T04:03:12;1.60;83.00
13458;DHT22;6801;53.018;11.560;2023-01-28T04:05:46;1.60;83.00
13458;DHT22;6801;53.018;11.560;2023-01-28T04:08:13;1.60;83.00
13458;DHT22;6801;53.018;11.560;2023-01-28T04:11:19;1.60;83.00
13458;DHT22;6801;53.018;11.560;2023-01-28T04:13:47;1.60;83.00
13458;DHT22;6801;53.018;11.560;2023-01-28T04:16:17;1.70;83.00
13458;DHT22;6801;53.018;11.560;2023-01-28T04:18:46;1.70;82.60
13458;DHT22;6801;53.018;11.560;2023-01-28T04:21:13;1.70;82.50
13458;DHT22;6801;53.018;11.560;2023-01-28T04:23:40;1.70;82.60
13458;DHT22;6801;53.018;11.560;2023-01-28T04:26:09;1.70;82.70
13458;DHT22;6801;53.018;11.560;2023-01-28T04:28:36;1.70;82.80
13458;DHT22;6801;53.018;11.560;2023-01-28T04:31:04;1.60;82.80
13458;DHT22;6801;53.018;11.560;2023-01-28T04:33:52;1.60;82.80
13458;DHT22;6801;53.018;11.560;2023-01-28T04:36:26;1.60;82.80
13458;DHT22;6801;53.018;11.560;2023-01-28T04:39:04;1.60;82.70
13458;DHT22;6801;53.018;11.560;2023-01-28T04:41:51;1.60;82.70
13458;DHT22;6801;53.018;11.560;2023-01-28T04:44:25;1.60;82.70
13458;DHT22;6801;53.018;11.560;2023-01-28T04:47:07;1.60;82.70
13458;DHT22;6801;53.018;11.560;2023-01-28T04:50:05;1.60;82.70
13458;DHT22;6801;53.018;11.560;2023-01-28T04:52:39;1.60;82.70
13458;DHT22;6801;53.018;11.560;2023-01-28T04:55:22;1.60;82.80
13458;DHT22;6801;53.018;11.560;2023-01-28T04:57:49;1.60;82.70
13458;DHT22;6801;53.018;11.560;2023-01-28T05:00:17;1.60;82.60
13458;DHT22;6801;53.018;11.560;2023-01-28T05:02:44;1.70;82.60
13458;DHT22;6801;53.018;11.560;2023-01-28T05:05:13;1.60;82.40
13458;DHT22;6801;53.018;11.560;2023-01-28T05:07:52;1.60;82.50
13458;DHT22;6801;53.018;11.560;2023-01-28T05:10:20;1.60;82.50
13458;DHT22;6801;53.018;11.560;2023-01-28T05:12:47;1.70;82.60
13458;DHT22;6801;53.018;11.560;2023-01-28T05:15:16;1.60;82.60
13458;DHT22;6801;53.018;11.560;2023-01-28T05:17:45;1.70;82.60
13458;DHT22;6801;53.018;11.560;2023-01-28T05:20:16;1.60;82.70
13458;DHT22;6801;53.018;11.560;2023-01-28T05:22:45;1.60;82.70
13458;DHT22;6801;53.018;11.560;2023-01-28T05:25:21;1.70;82.50
13458;DHT22;6801;53.018;11.560;2023-01-28T05:27:51;1.60;82.30
13458;DHT22;6801;53.018;11.560;2023-01-28T05:30:19;1.60;82.20
13458;DHT22;6801;53.018;11.560;2023-01-28T05:32:46;1.70;82.30
13458;DHT22;6801;53.018;11.560;2023-01-28T05:35:17;1.70;82.30
13458;DHT22;6801;53.018;11.560;2023-01-28T05:37:44;1.60;82.10
13458;DHT22;6801;53.018;11.560;2023-01-28T05:40:12;1.70;82.10
13458;DHT22;6801;53.018;11.560;2023-01-28T05:42:39;1.70;82.20
13458;DHT22;6801;53.018;11.560;2023-01-28T05:45:27;1.60;82.30
13458;DHT22;6801;53.018;11.560;2023-01-28T05:48:04;1.70;82.30
13458;DHT22;6801;53.018;11.560;2023-01-28T05:50:45;1.60;82.30
13458;DHT22;6801;53.018;11.560;2023-01-28T05:53:19;1.70;82.30
13458;DHT22;6801;53.018;11.560;2023-01-28T05:55:47;1.70;82.30
13458;DHT22;6801;53.018;11.560;2023-01-28T05:58:16;1.70;82.30
13458;DHT22;6801;53.018;11.560;2023-01-28T06:00:43;1.70;82.40
13458;DHT22;6801;53.018;11.560;2023-01-28T06:03:10;1.70;82.40
13458;DHT22;6801;53.018;11.560;2023-01-28T06:05:38;1.70;82.50
13458;DHT22;6801;53.018;11.560;2023-01-28T06:08:07;1.70;82.50
13458;DHT22;6801;53.018;11.560;2023-01-28T06:10:36;1.70;82.50
13458;DHT22;6801;53.018;11.560;2023-01-28T06:13:03;1.70;82.50
13458;DHT22;6801;53.018;11.560;2023-01-28T06:15:50;1.70;82.60
13458;DHT22;6801;53.018;11.560;2023-01-28T06:18:37;1.70;82.50
13458;DHT22;6801;53.018;11.560;2023-01-28T06:21:06;1.70;82.50
13458;DHT22;6801;53.018;11.560;2023-01-28T06:23:35;1.70;82.50
13458;DHT22;6801;53.018;11.560;2023-01-28T06:26:06;1.70;82.60
13458;DHT22;6801;53.018;11.560;2023-01-28T06:28:35;1.70;82.60
13458;DHT22;6801;53.018;11.560;2023-01-28T06:31:02;1.70;82.60
13458;DHT22;6801;53.018;11.560;2023-01-28T06:33:30;1.70;82.60
13458;DHT22;6801;53.018;11.560;2023-01-28T06:35:57;1.70;82.60
13458;DHT22;6801;53.018;11.560;2023-01-28T06:38:24;1.70;82.60
13458;DHT22;6801;53.018;11.560;2023-01-28T06:40:53;1.70;82.50
13458;DHT22;6801;53.018;11.560;2023-01-28T06:43:20;1.70;82.50
13458;DHT22;6801;53.018;11.560;2023-01-28T06:45:52;1.70;82.50
13458;DHT22;6801;53.018;11.560;2023-01-28T06:48:19;1.70;82.40
13458;DHT22;6801;53.018;11.560;2023-01-28T06:50:46;1.70;82.40
13458;DHT22;6801;53.018;11.560;2023-01-28T06:53:47;1.70;82.40
13458;DHT22;6801;53.018;11.560;2023-01-28T06:56:15;1.70;82.40
13458;DHT22;6801;53.018;11.560;2023-01-28T06:58:42;1.70;82.50
13458;DHT22;6801;53.018;11.560;2023-01-28T07:01:09;1.70;82.40
13458;DHT22;6801;53.018;11.560;2023-01-28T07:03:36;1.70;82.40
13458;DHT22;6801;53.018;11.560;2023-01-28T07:06:04;1.70;82.40
13458;DHT22;6801;53.018;11.560;2023-01-28T07:08:31;1.70;82.40
13458;DHT22;6801;53.018;11.560;2023-01-28T07:10:58;1.70;82.50
13458;DHT22;6801;53.018;11.560;2023-01-28T07:13:27;1.70;82.50
13458;DHT22;6801;53.018;11.560;2023-01-28T07:15:54;1.70;82.50
13458;DHT22;6801;53.018;11.560;2023-01-28T07:18:21;1.70;82.60
13458;DHT22;6801;53.018;11.560;2023-01-28T07:20:48;1.70;82.50
13458;DHT22;6801;53.018;11.560;2023-01-28T07:23:15;1.70;82.50
13458;DHT22;6801;53.018;11.560;2023-01-28T07:25:42;1.70;82.40
13458;DHT22;6801;53.018;11.560;2023-01-28T07:28:09;1.70;82.00
13458;DHT22;6801;53.018;11.560;2023-01-28T07:30:37;1.70;81.50
13458;DHT22;6801;53.018;11.560;2023-01-28T07:33:04;1.70;81.60
13458;DHT22;6801;53.018;11.560;2023-01-28T07:35:31;1.70;81.80
13458;DHT22;6801;53.018;11.560;2023-01-28T07:37:59;1.70;81.90
13458;DHT22;6801;53.018;11.560;2023-01-28T07:40:27;1.70;82.00
13458;DHT22;6801;53.018;11.560;2023-01-28T07:42:54;1.70;82.10
13458;DHT22;6801;53.018;11.560;2023-01-28T07:45:22;1.70;82.20
13458;DHT22;6801;53.018;11.560;2023-01-28T07:47:55;1.70;82.20
13458;DHT22;6801;53.018;11.560;2023-01-28T07:50:23;1.70;82.20
13458;DHT22;6801;53.018;11.560;2023-01-28T07:52:50;1.70;82.10
13458;DHT22;6801;53.018;11.560;2023-01-28T07:55:17;1.70;82.10
13458;DHT22;6801;53.018;11.560;2023-01-28T07:57:49;1.70;82.10
13458;DHT22;6801;53.018;11.560;2023-01-28T08:00:17;1.70;82.20
13458;DHT22;6801;53.018;11.560;2023-01-28T08:02:44;1.70;82.20
13458;DHT22;6801;53.018;11.560;2023-01-28T08:05:15;1.70;82.10
13458;DHT22;6801;53.018;11.560;2023-01-28T08:07:42;1.70;82.10
13458;DHT22;6801;53.018;11.560;2023-01-28T08:10:10;1.70;82.10
13458;DHT22;6801;53.018;11.560;2023-01-28T08:12:37;1.70;82.20
13458;DHT22;6801;53.018;11.560;2023-01-28T08:15:05;1.70;82.10
13458;DHT22;6801;53.018;11.560;2023-01-28T08:17:33;1.70;82.20
13458;DHT22;6801;53.018;11.560;2023-01-28T08:20:00;1.80;82.20
13458;DHT22;6801;53.018;11.560;2023-01-28T08:22:28;1.70;82.20
13458;DHT22;6801;53.018;11.560;2023-01-28T08:24:55;1.70;82.20
13458;DHT22;6801;53.018;11.560;2023-01-28T08:27:22;1.80;82.20
13458;DHT22;6801;53.018;11.560;2023-01-28T08:29:49;1.70;82.30
13458;DHT22;6801;53.018;11.560;2023-01-28T08:32:16;1.80;82.30
13458;DHT22;6801;53.018;11.560;2023-01-28T08:34:43;1.70;82.30
13458;DHT22;6801;53.018;11.560;2023-01-28T08:37:10;1.80;82.30
13458;DHT22;6801;53.018;11.560;2023-01-28T08:39:38;1.80;82.30
13458;DHT22;6801;53.018;11.560;2023-01-28T08:42:05;1.80;82.30
13458;DHT22;6801;53.018;11.560;2023-01-28T08:44:32;1.80;82.20
13458;DHT22;6801;53.018;11.560;2023-01-28T08:46:59;1.80;82.30
13458;DHT22;6801;53.018;11.560;2023-01-28T08:49:26;1.80;82.20
13458;DHT22;6801;53.018;11.560;2023-01-28T08:51:53;1.80;82.20
13458;DHT22;6801;53.018;11.560;2023-01-28T08:54:20;1.80;82.10
13458;DHT22;6801;53.018;11.560;2023-01-28T08:56:49;1.80;82.10
13458;DHT22;6801;53.018;11.560;2023-01-28T08:59:16;1.80;82.10
13458;DHT22;6801;53.018;11.560;2023-01-28T09:01:43;1.80;82.20
13458;DHT22;6801;53.018;11.560;2023-01-28T09:04:10;1.80;82.20
13458;DHT22;6801;53.018;11.560;2023-01-28T09:06:38;1.80;82.20
13458;DHT22;6801;53.018;11.560;2023-01-28T09:09:05;1.90;82.20
13458;DHT22;6801;53.018;11.560;2023-01-28T09:11:32;1.80;82.20
13458;DHT22;6801;53.018;11.560;2023-01-28T09:14:00;1.90;82.20
13458;DHT22;6801;53.018;11.560;2023-01-28T09:16:27;1.90;82.20
13458;DHT22;6801;53.018;11.560;2023-01-28T09:18:54;1.90;82.10
13458;DHT22;6801;53.018;11.560;2023-01-28T09:21:21;1.90;82.10
13458;DHT22;6801;53.018;11.560;2023-01-28T09:23:48;1.90;82.10
13458;DHT22;6801;53.018;11.560;2023-01-28T09:26:15;2.00;82.10
13458;DHT22;6801;53.018;11.560;2023-01-28T09:28:42;1.90;82.00
13458;DHT22;6801;53.018;11.560;2023-01-28T09:31:11;2.00;82.00
13458;DHT22;6801;53.018;11.560;2023-01-28T09:33:39;2.00;82.00
13458;DHT22;6801;53.018;11.560;2023-01-28T09:36:09;2.00;81.90
13458;DHT22;6801;53.018;11.560;2023-01-28T09:38:36;1.90;81.80
13458;DHT22;6801;53.018;11.560;2023-01-28T09:41:14;1.90;81.80
13458;DHT22;6801;53.018;11.560;2023-01-28T09:43:57;1.90;81.80
13458;DHT22;6801;53.018;11.560;2023-01-28T09:46:31;1.90;81.80
13458;DHT22;6801;53.018;11.560;2023-01-28T09:49:00;1.90;81.80
13458;DHT22;6801;53.018;11.560;2023-01-28T09:51:33;2.00;81.80
13458;DHT22;6801;53.018;11.560;2023-01-28T09:54:05;2.00;81.80
13458;DHT22;6801;53.018;11.560;2023-01-28T09:56:40;2.00;81.80
13458;DHT22;6801;53.018;11.560;2023-01-28T09:59:16;2.00;81.80
13458;DHT22;6801;53.018;11.560;2023-01-28T10:01:49;2.00;81.90
13458;DHT22;6801;53.018;11.560;2023-01-28T10:04:26;2.00;81.80
13458;DHT22;6801;53.018;11.560;2023-01-28T10:07:08;2.00;81.80
13458;DHT22;6801;53.018;11.560;2023-01-28T10:09:42;2.00;81.80
13458;DHT22;6801;53.018;11.560;2023-01-28T10:15:45;2.00;81.80
13458;DHT22;6801;53.018;11.560;2023-01-28T10:18:17;2.00;81.80
13458;DHT22;6801;53.018;11.560;2023-01-28T10:20:51;2.00;81.70
13458;DHT22;6801;53.018;11.560;2023-01-28T10:23:23;2.00;81.60
13458;DHT22;6801;53.018;11.560;2023-01-28T10:25:53;2.00;81.60
13458;DHT22;6801;53.018;11.560;2023-01-28T10:28:24;2.00;81.70
13458;DHT22;6801;53.018;11.560;2023-01-28T10:30:52;2.00;81.50
13458;DHT22;6801;53.018;11.560;2023-01-28T10:33:23;2.00;81.50
13458;DHT22;6801;53.018;11.560;2023-01-28T10:35:55;2.00;81.40
13458;DHT22;6801;53.018;11.560;2023-01-28T10:38:24;2.00;81.40
13458;DHT22;6801;53.018;11.560;2023-01-28T10:40:52;2.00;81.40
13458;DHT22;6801;53.018;11.560;2023-01-28T10:43:23;2.00;81.40
13458;DHT22;6801;53.018;11.560;2023-01-28T10:45:56;2.10;81.50
13458;DHT22;6801;53.018;11.560;2023-01-28T10:48:28;2.00;81.50
13458;DHT22;6801;53.018;11.560;2023-01-28T10:50:56;2.00;81.40
13458;DHT22;6801;53.018;11.560;2023-01-28T10:53:37;2.00;81.40
13458;DHT22;6801;53.018;11.560;2023-01-28T10:56:06;2.10;81.50
13458;DHT22;6801;53.018;11.560;2023-01-28T10:58:46;2.00;81.30
13458;DHT22;6801;53.018;11.560;2023-01-28T11:01:13;2.10;81.30
13458;DHT22;6801;53.018;11.560;2023-01-28T11:03:52;2.00;81.20
13458;DHT22;6801;53.018;11.560;2023-01-28T11:06:24;2.10;81.20
13458;DHT22;6801;53.018;11.560;2023-01-28T11:08:51;2.10;81.00
13458;DHT22;6801;53.018;11.560;2023-01-28T11:11:23;2.10;81.00
13458;DHT22;6801;53.018;11.560;2023-01-28T11:13:52;2.10;81.00
13458;DHT22;6801;53.018;11.560;2023-01-28T11:16:20;2.10;80.90
13458;DHT22;6801;53.018;11.560;2023-01-28T11:18:51;2.10;80.90
13458;DHT22;6801;53.018;11.560;2023-01-28T11:21:20;2.10;80.90
13458;DHT22;6801;53.018;11.560;2023-01-28T11:23:50;2.10;81.00
13458;DHT22;6801;53.018;11.560;2023-01-28T11:26:20;2.10;81.00
13458;DHT22;6801;53.018;11.560;2023-01-28T11:28:47;2.10;81.10
13458;DHT22;6801;53.018;11.560;2023-01-28T11:31:16;2.10;81.10
13458;DHT22;6801;53.018;11.560;2023-01-28T11:33:49;2.10;81.10
13458;DHT22;6801;53.018;11.560;2023-01-28T11:36:19;2.10;81.10
13458;DHT22;6801;53.018;11.560;2023-01-28T11:38:49;2.10;81.00
13458;DHT22;6801;53.018;11.560;2023-01-28T11:41:18;2.10;81.10
13458;DHT22;6801;53.018;11.560;2023-01-28T11:43:49;2.20;81.00
13458;DHT22;6801;53.018;11.560;2023-01-28T11:46:45;2.10;80.90
13458;DHT22;6801;53.018;11.560;2023-01-28T11:49:25;2.20;80.80
13458;DHT22;6801;53.018;11.560;2023-01-28T11:52:00;2.20;80.70
13458;DHT22;6801;53.018;11.560;2023-01-28T11:54:38;2.20;80.80
13458;DHT22;6801;53.018;11.560;2023-01-28T11:57:17;2.20;80.90
13458;DHT22;6801;53.018;11.560;2023-01-28T12:00:06;2.30;81.00
13458;DHT22;6801;53.018;11.560;2023-01-28T12:02:52;2.30;81.00
13458;DHT22;6801;53.018;11.560;2023-01-28T12:05:40;2.30;81.00
13458;DHT22;6801;53.018;11.560;2023-01-28T12:08:14;2.30;81.00
13458;DHT22;6801;53.018;11.560;2023-01-28T12:10:51;2.40;81.00
13458;DHT22;6801;53.018;11.560;2023-01-28T12:13:31;2.40;81.00
13458;DHT22;6801;53.018;11.560;2023-01-28T12:19:19;2.40;80.80
13458;DHT22;6801;53.018;11.560;2023-01-28T12:22:07;2.40;80.70
13458;DHT22;6801;53.018;11.560;2023-01-28T12:24:45;2.40;80.80
13458;DHT22;6801;53.018;11.560;2023-01-28T12:27:28;2.50;80.80
13458;DHT22;6801;53.018;11.560;2023-01-28T12:30:05;2.50;80.80
13458;DHT22;6801;53.018;11.560;2023-01-28T12:32:46;2.50;80.80
13458;DHT22;6801;53.018;11.560;2023-01-28T12:35:21;2.50;80.70
13458;DHT22;6801;53.018;11.560;2023-01-28T12:37:59;2.50;80.70
13458;DHT22;6801;53.018;11.560;2023-01-28T12:40:56;2.50;80.70
13458;DHT22;6801;53.018;11.560;2023-01-28T12:43:45;2.60;80.80
13458;DHT22;6801;53.018;11.560;2023-01-28T12:46:22;2.60;80.70
13458;DHT22;6801;53.018;11.560;2023-01-28T12:48:55;2.60;80.60
13458;DHT22;6801;53.018;11.560;2023-01-28T12:51:28;2.70;80.60
13458;DHT22;6801;53.018;11.560;2023-01-28T12:54:01;2.70;80.50
13458;DHT22;6801;53.018;11.560;2023-01-28T12:56:33;2.70;80.20
13458;DHT22;6801;53.018;11.560;2023-01-28T12:59:04;2.80;80.20
13458;DHT22;6801;53.018;11.560;2023-01-28T13:01:39;2.80;80.30
13458;DHT22;6801;53.018;11.560;2023-01-28T13:04:12;2.80;80.30
13458;DHT22;6801;53.018;11.560;2023-01-28T13:06:45;2.80;80.20
13458;DHT22;6801;53.018;11.560;2023-01-28T13:09:17;2.90;80.30
13458;DHT22;6801;53.018;11.560;2023-01-28T13:11:46;2.90;80.30
13458;DHT22;6801;53.018;11.560;2023-01-28T13:14:16;3.00;80.40
13458;DHT22;6801;53.018;11.560;2023-01-28T13:16:44;2.90;80.30
13458;DHT22;6801;53.018;11.560;2023-01-28T13:19:23;3.00;80.20
13458;DHT22;6801;53.018;11.560;2023-01-28T13:21:51;3.00;80.20
13458;DHT22;6801;53.018;11.560;2023-01-28T13:24:23;3.00;80.20
13458;DHT22;6801;53.018;11.560;2023-01-28T13:26:57;3.00;80.30
13458;DHT22;6801;53.018;11.560;2023-01-28T13:29:37;3.10;80.20
13458;DHT22;6801;53.018;11.560;2023-01-28T13:32:29;3.10;80.20
13458;DHT22;6801;53.018;11.560;2023-01-28T13:34:59;3.10;79.70
13458;DHT22;6801;53.018;11.560;2023-01-28T13:37:30;3.10;79.70
13458;DHT22;6801;53.018;11.560;2023-01-28T13:40:02;3.10;79.70
13458;DHT22;6801;53.018;11.560;2023-01-28T13:42:30;3.10;79.80
13458;DHT22;6801;53.018;11.560;2023-01-28T13:45:21;3.20;79.80
13458;DHT22;6801;53.018;11.560;2023-01-28T13:47:53;3.20;79.80
13458;DHT22;6801;53.018;11.560;2023-01-28T13:50:22;3.30;79.80
13458;DHT22;6801;53.018;11.560;2023-01-28T13:52:54;3.30;79.10
13458;DHT22;6801;53.018;11.560;2023-01-28T13:55:26;3.30;79.10
13458;DHT22;6801;53.018;11.560;2023-01-28T13:58:18;3.30;78.50
13458;DHT22;6801;53.018;11.560;2023-01-28T14:01:18;3.30;78.90
13458;DHT22;6801;53.018;11.560;2023-01-28T14:07:05;3.40;78.70
13458;DHT22;6801;53.018;11.560;2023-01-28T14:09:57;3.40;75.80
13458;DHT22;6801;53.018;11.560;2023-01-28T14:15:44;3.40;77.90
13458;DHT22;6801;53.018;11.560;2023-01-28T14:18:25;3.40;77.70
13458;DHT22;6801;53.018;11.560;2023-01-28T14:20:54;3.40;77.60
13458;DHT22;6801;53.018;11.560;2023-01-28T14:23:23;3.40;77.90
13458;DHT22;6801;53.018;11.560;2023-01-28T14:28:59;3.40;77.20
13458;DHT22;6801;53.018;11.560;2023-01-28T14:31:31;3.40;77.40
13458;DHT22;6801;53.018;11.560;2023-01-28T14:34:05;3.40;77.80
13458;DHT22;6801;53.018;11.560;2023-01-28T14:36:36;3.40;78.10
13458;DHT22;6801;53.018;11.560;2023-01-28T14:39:03;3.40;78.50
13458;DHT22;6801;53.018;11.560;2023-01-28T14:41:30;3.40;78.50
13458;DHT22;6801;53.018;11.560;2023-01-28T14:43:59;3.40;77.80
13458;DHT22;6801;53.018;11.560;2023-01-28T14:46:40;3.40;78.00
13458;DHT22;6801;53.018;11.560;2023-01-28T14:49:20;3.40;78.00
13458;DHT22;6801;53.018;11.560;2023-01-28T14:52:06;3.40;78.20
13458;DHT22;6801;53.018;11.560;2023-01-28T14:54:44;3.40;78.30
13458;DHT22;6801;53.018;11.560;2023-01-28T14:57:24;3.40;78.30
13458;DHT22;6801;53.018;11.560;2023-01-28T14:59:56;3.40;78.30
13458;DHT22;6801;53.018;11.560;2023-01-28T15:02:25;3.40;77.50
13458;DHT22;6801;53.018;11.560;2023-01-28T15:04:53;3.40;76.80
13458;DHT22;6801;53.018;11.560;2023-01-28T15:07:21;3.30;76.20
13458;DHT22;6801;53.018;11.560;2023-01-28T15:09:59;3.30;76.10
13458;DHT22;6801;53.018;11.560;2023-01-28T15:12:27;3.30;76.90
13458;DHT22;6801;53.018;11.560;2023-01-28T15:14:56;3.30;77.40
13458;DHT22;6801;53.018;11.560;2023-01-28T15:17:26;3.30;77.70
13458;DHT22;6801;53.018;11.560;2023-01-28T15:19:56;3.30;77.90
13458;DHT22;6801;53.018;11.560;2023-01-28T15:22:26;3.30;78.00
13458;DHT22;6801;53.018;11.560;2023-01-28T15:24:54;3.30;78.20
13458;DHT22;6801;53.018;11.560;2023-01-28T15:27:26;3.30;78.10
13458;DHT22;6801;53.018;11.560;2023-01-28T15:29:57;3.30;78.20
13458;DHT22;6801;53.018;11.560;2023-01-28T15:32:25;3.20;78.20
13458;DHT22;6801;53.018;11.560;2023-01-28T15:34:53;3.20;77.50
13458;DHT22;6801;53.018;11.560;2023-01-28T15:37:21;3.10;77.40
13458;DHT22;6801;53.018;11.560;2023-01-28T15:40:00;3.10;77.80
13458;DHT22;6801;53.018;11.560;2023-01-28T15:42:30;3.10;78.20
13458;DHT22;6801;53.018;11.560;2023-01-28T15:44:59;3.10;78.40
13458;DHT22;6801;53.018;11.560;2023-01-28T15:47:30;3.00;78.40
13458;DHT22;6801;53.018;11.560;2023-01-28T15:50:03;3.00;78.30
13458;DHT22;6801;53.018;11.560;2023-01-28T15:52:33;3.00;78.50
13458;DHT22;6801;53.018;11.560;2023-01-28T15:55:02;2.90;78.40
13458;DHT22;6801;53.018;11.560;2023-01-28T15:57:32;2.90;78.40
13458;DHT22;6801;53.018;11.560;2023-01-28T16:00:10;2.90;78.00
13458;DHT22;6801;53.018;11.560;2023-01-28T16:02:43;2.90;77.80
13458;DHT22;6801;53.018;11.560;2023-01-28T16:05:25;2.80;78.20
13458;DHT22;6801;53.018;11.560;2023-01-28T16:07:53;2.80;78.20
13458;DHT22;6801;53.018;11.560;2023-01-28T16:10:26;2.80;77.90
13458;DHT22;6801;53.018;11.560;2023-01-28T16:16:34;2.70;78.00
13458;DHT22;6801;53.018;11.560;2023-01-28T16:19:04;2.70;77.90
13458;DHT22;6801;53.018;11.560;2023-01-28T16:21:35;2.60;78.20
13458;DHT22;6801;53.018;11.560;2023-01-28T16:24:03;2.60;78.30
13458;DHT22;6801;53.018;11.560;2023-01-28T16:26:32;2.60;78.40
13458;DHT22;6801;53.018;11.560;2023-01-28T16:29:05;2.60;78.40
13458;DHT22;6801;53.018;11.560;2023-01-28T16:31:38;2.50;78.10
13458;DHT22;6801;53.018;11.560;2023-01-28T16:34:06;2.50;77.70
13458;DHT22;6801;53.018;11.560;2023-01-28T16:36:34;2.40;77.20